Midpines, CA (95345)

9:55 PM PST on December 17, 2014 (GMT -0800)
Western Yosemite Region -Mariposa, Mariposa County, CA | Change Station
CLOSE
Current Station
Personal Weather Station
Location: Mariposa, CA
Elevation: 2224 ft
Nearby Weather Stations

Elev 2224 ft 37.50 °N, 119.98 °W | Updated 8 minutes ago

Overcast
Overcast
39.6 °F
Feels Like 40 °F
N
0.0
Wind Variable Wind from SE
Gusts 0.0 mph

Today
High -- | Low -- °F
--% Chance of Precip.
Yesterday
High -- | Low -- °F
Precip. -- in
7:08 AM 4:43 PM
Waning Crescent, 17% visible
Pressure 30.10 in
Visibility 9.0 miles
Clouds Overcast 9000 ft
Windchill 40 °F
Dew Point 37 °F
Humidity 91%
Rainfall 0.38 in
Snow Depth Not available.
UV 0 out of 12
Pollen .20 out of 12
Air Quality Not available.
Flu Activity Not available.
METAR KO22 180535Z AUTO 00000KT 9SM OVC090 04/04 A3010 RMK AO1

More Conditions Fewer Conditions

Pressure 30.10 in
Visibility 9.0 miles
Clouds Overcast 9000 ft
Windchill 40 °F
Dew Point 37 °F
Humidity 91%
Rainfall 0.38 in
Snow Depth Not available.
UV 0 out of 12
Pollen .20 out of 12
Air Quality Not available.
Flu Activity Not available.
METAR KO22 180535Z AUTO 00000KT 9SM OVC090 04/04 A3010 RMK AO1

More Conditions Fewer Conditions

10-Day Weather Forecast

Almanac

Astronomy

Dec. 17, 2014 Rise Set
Actual Time
Civil Twilight
Nautical Twilight
Astronomical Twilight
Moon
Length of Visible Light
Length of Day
Tomorrow will be .
, % of the Moon is Illuminated

Today's Extremes

State Highs State Lows

Community

WunderPhotos

Upload Photos

1,778,896 photos uploaded!

WunderBlogs® & News

Nearby

Air Quality

  Air Quality AQ Index Pollutant
Not available.

Snow Depth

Station Depth Elevation

Earthquake Activity

City Distance Mag. Time & Date
Minimum magnitude displayed is 2.5.

Coastal Water Temperatures

Place Temperature

Nearby Weather Stations